sensor_id;sensor_type;location;lat;lon;timestamp;P1;durP1;ratioP1;P2;durP2;ratioP2
69005;SDS011;56061;51.748;19.620;2022-07-19T00:00:20;11.00;;;5.10;;
69005;SDS011;56061;51.748;19.620;2022-07-19T00:02:49;10.50;;;4.80;;
69005;SDS011;56061;51.748;19.620;2022-07-19T00:05:16;9.00;;;4.50;;
69005;SDS011;56061;51.748;19.620;2022-07-19T00:07:44;12.80;;;5.30;;
69005;SDS011;56061;51.748;19.620;2022-07-19T00:10:13;9.20;;;5.00;;
69005;SDS011;56061;51.748;19.620;2022-07-19T00:12:42;12.20;;;5.00;;
69005;SDS011;56061;51.748;19.620;2022-07-19T00:15:12;10.40;;;4.40;;
69005;SDS011;56061;51.748;19.620;2022-07-19T00:17:43;10.80;;;4.70;;
69005;SDS011;56061;51.748;19.620;2022-07-19T00:20:15;11.60;;;4.90;;
69005;SDS011;56061;51.748;19.620;2022-07-19T00:22:44;9.90;;;5.00;;
69005;SDS011;56061;51.748;19.620;2022-07-19T00:25:11;10.90;;;5.20;;
69005;SDS011;56061;51.748;19.620;2022-07-19T00:27:39;9.20;;;4.70;;
69005;SDS011;56061;51.748;19.620;2022-07-19T00:30:08;12.00;;;5.10;;
69005;SDS011;56061;51.748;19.620;2022-07-19T00:32:35;11.80;;;5.10;;
69005;SDS011;56061;51.748;19.620;2022-07-19T00:35:02;11.90;;;5.00;;
69005;SDS011;56061;51.748;19.620;2022-07-19T00:37:29;11.20;;;5.00;;
69005;SDS011;56061;51.748;19.620;2022-07-19T00:39:56;10.70;;;5.10;;
69005;SDS011;56061;51.748;19.620;2022-07-19T00:42:22;10.80;;;5.20;;
69005;SDS011;56061;51.748;19.620;2022-07-19T00:44:49;13.20;;;6.00;;
69005;SDS011;56061;51.748;19.620;2022-07-19T00:47:15;12.10;;;5.80;;
69005;SDS011;56061;51.748;19.620;2022-07-19T00:49:42;12.70;;;5.70;;
69005;SDS011;56061;51.748;19.620;2022-07-19T00:52:09;12.70;;;5.10;;
69005;SDS011;56061;51.748;19.620;2022-07-19T00:54:39;11.10;;;5.50;;
69005;SDS011;56061;51.748;19.620;2022-07-19T00:57:06;11.80;;;5.30;;
69005;SDS011;56061;51.748;19.620;2022-07-19T00:59:34;11.70;;;5.60;;
69005;SDS011;56061;51.748;19.620;2022-07-19T01:02:01;11.70;;;5.30;;
69005;SDS011;56061;51.748;19.620;2022-07-19T01:04:29;13.70;;;7.20;;
69005;SDS011;56061;51.748;19.620;2022-07-19T01:06:56;12.90;;;5.90;;
69005;SDS011;56061;51.748;19.620;2022-07-19T01:09:22;13.50;;;6.00;;
69005;SDS011;56061;51.748;19.620;2022-07-19T01:11:50;13.80;;;6.40;;
69005;SDS011;56061;51.748;19.620;2022-07-19T01:14:17;10.90;;;5.50;;
69005;SDS011;56061;51.748;19.620;2022-07-19T01:16:45;14.40;;;5.70;;
69005;SDS011;56061;51.748;19.620;2022-07-19T01:19:12;13.20;;;5.80;;
69005;SDS011;56061;51.748;19.620;2022-07-19T01:21:40;12.80;;;5.20;;
69005;SDS011;56061;51.748;19.620;2022-07-19T01:24:08;10.50;;;5.30;;
69005;SDS011;56061;51.748;19.620;2022-07-19T01:26:35;11.60;;;5.60;;
69005;SDS011;56061;51.748;19.620;2022-07-19T01:29:02;10.80;;;5.50;;
69005;SDS011;56061;51.748;19.620;2022-07-19T01:31:29;12.40;;;5.00;;
69005;SDS011;56061;51.748;19.620;2022-07-19T01:33:56;12.10;;;5.30;;
69005;SDS011;56061;51.748;19.620;2022-07-19T01:36:23;13.00;;;6.00;;
69005;SDS011;56061;51.748;19.620;2022-07-19T01:38:49;11.30;;;5.40;;
69005;SDS011;56061;51.748;19.620;2022-07-19T01:41:16;10.40;;;5.10;;
69005;SDS011;56061;51.748;19.620;2022-07-19T01:43:42;14.00;;;5.60;;
69005;SDS011;56061;51.748;19.620;2022-07-19T01:46:10;14.80;;;5.60;;
69005;SDS011;56061;51.748;19.620;2022-07-19T01:48:38;16.70;;;6.10;;
69005;SDS011;56061;51.748;19.620;2022-07-19T01:51:05;15.30;;;5.30;;
69005;SDS011;56061;51.748;19.620;2022-07-19T01:53:32;10.90;;;5.00;;
69005;SDS011;56061;51.748;19.620;2022-07-19T01:55:58;13.40;;;5.40;;
69005;SDS011;56061;51.748;19.620;2022-07-19T01:58:25;11.30;;;5.00;;
69005;SDS011;56061;51.748;19.620;2022-07-19T02:00:52;12.00;;;5.50;;
69005;SDS011;56061;51.748;19.620;2022-07-19T02:03:18;9.80;;;4.70;;
69005;SDS011;56061;51.748;19.620;2022-07-19T02:05:45;10.40;;;5.30;;
69005;SDS011;56061;51.748;19.620;2022-07-19T02:08:11;11.20;;;5.00;;
69005;SDS011;56061;51.748;19.620;2022-07-19T02:13:26;14.30;;;5.90;;
69005;SDS011;56061;51.748;19.620;2022-07-19T02:15:52;12.40;;;6.00;;
69005;SDS011;56061;51.748;19.620;2022-07-19T02:18:19;10.90;;;5.90;;
69005;SDS011;56061;51.748;19.620;2022-07-19T02:20:45;12.70;;;6.30;;
69005;SDS011;56061;51.748;19.620;2022-07-19T02:23:12;10.50;;;5.40;;
69005;SDS011;56061;51.748;19.620;2022-07-19T02:25:39;10.40;;;5.50;;
69005;SDS011;56061;51.748;19.620;2022-07-19T02:28:05;10.30;;;5.10;;
69005;SDS011;56061;51.748;19.620;2022-07-19T02:30:32;12.20;;;5.30;;
69005;SDS011;56061;51.748;19.620;2022-07-19T02:32:58;8.70;;;5.00;;
69005;SDS011;56061;51.748;19.620;2022-07-19T02:35:25;12.60;;;5.70;;
69005;SDS011;56061;51.748;19.620;2022-07-19T02:37:51;13.60;;;5.50;;
69005;SDS011;56061;51.748;19.620;2022-07-19T02:40:18;12.80;;;5.20;;
69005;SDS011;56061;51.748;19.620;2022-07-19T02:42:45;13.70;;;5.20;;
69005;SDS011;56061;51.748;19.620;2022-07-19T02:45:11;10.80;;;5.20;;
69005;SDS011;56061;51.748;19.620;2022-07-19T02:47:38;10.00;;;4.90;;
69005;SDS011;56061;51.748;19.620;2022-07-19T02:50:05;9.90;;;4.70;;
69005;SDS011;56061;51.748;19.620;2022-07-19T02:52:32;8.30;;;4.00;;
69005;SDS011;56061;51.748;19.620;2022-07-19T02:54:59;10.80;;;4.20;;
69005;SDS011;56061;51.748;19.620;2022-07-19T02:57:25;11.60;;;4.40;;
69005;SDS011;56061;51.748;19.620;2022-07-19T02:59:52;9.60;;;3.80;;
69005;SDS011;56061;51.748;19.620;2022-07-19T03:02:18;12.50;;;4.50;;
69005;SDS011;56061;51.748;19.620;2022-07-19T03:04:45;7.60;;;4.30;;
69005;SDS011;56061;51.748;19.620;2022-07-19T03:07:12;10.10;;;4.30;;
69005;SDS011;56061;51.748;19.620;2022-07-19T03:09:39;11.60;;;4.30;;
69005;SDS011;56061;51.748;19.620;2022-07-19T03:12:06;9.00;;;3.90;;
69005;SDS011;56061;51.748;19.620;2022-07-19T03:14:33;11.50;;;4.40;;
69005;SDS011;56061;51.748;19.620;2022-07-19T03:16:59;11.00;;;4.30;;
69005;SDS011;56061;51.748;19.620;2022-07-19T03:19:26;11.50;;;4.60;;
69005;SDS011;56061;51.748;19.620;2022-07-19T03:21:53;12.50;;;4.40;;
69005;SDS011;56061;51.748;19.620;2022-07-19T03:24:21;14.00;;;4.50;;
69005;SDS011;56061;51.748;19.620;2022-07-19T03:26:48;11.00;;;4.60;;
69005;SDS011;56061;51.748;19.620;2022-07-19T03:29:14;9.90;;;4.30;;
69005;SDS011;56061;51.748;19.620;2022-07-19T03:31:41;9.50;;;4.30;;
69005;SDS011;56061;51.748;19.620;2022-07-19T03:34:08;10.40;;;3.80;;
69005;SDS011;56061;51.748;19.620;2022-07-19T03:36:34;10.60;;;3.90;;
69005;SDS011;56061;51.748;19.620;2022-07-19T03:39:01;8.20;;;3.70;;
69005;SDS011;56061;51.748;19.620;2022-07-19T03:41:29;12.60;;;4.10;;
69005;SDS011;56061;51.748;19.620;2022-07-19T03:43:55;13.00;;;4.30;;
69005;SDS011;56061;51.748;19.620;2022-07-19T03:46:22;12.10;;;4.70;;
69005;SDS011;56061;51.748;19.620;2022-07-19T03:48:49;11.90;;;3.60;;
69005;SDS011;56061;51.748;19.620;2022-07-19T03:51:15;10.70;;;3.80;;
69005;SDS011;56061;51.748;19.620;2022-07-19T03:53:42;8.80;;;3.40;;
69005;SDS011;56061;51.748;19.620;2022-07-19T03:56:09;10.80;;;3.60;;
69005;SDS011;56061;51.748;19.620;2022-07-19T03:58:35;13.60;;;3.80;;
69005;SDS011;56061;51.748;19.620;2022-07-19T04:01:02;10.40;;;4.40;;
69005;SDS011;56061;51.748;19.620;2022-07-19T04:03:29;11.70;;;4.50;;
69005;SDS011;56061;51.748;19.620;2022-07-19T04:05:55;11.40;;;4.30;;
69005;SDS011;56061;51.748;19.620;2022-07-19T04:08:23;9.90;;;4.30;;
69005;SDS011;56061;51.748;19.620;2022-07-19T04:11:03;9.70;;;4.10;;
69005;SDS011;56061;51.748;19.620;2022-07-19T04:13:34;10.00;;;4.20;;
69005;SDS011;56061;51.748;19.620;2022-07-19T04:16:03;9.70;;;4.30;;
69005;SDS011;56061;51.748;19.620;2022-07-19T04:18:30;9.70;;;4.00;;
69005;SDS011;56061;51.748;19.620;2022-07-19T04:20:59;11.50;;;4.40;;
69005;SDS011;56061;51.748;19.620;2022-07-19T04:23:26;10.20;;;3.90;;
69005;SDS011;56061;51.748;19.620;2022-07-19T04:25:53;10.30;;;3.90;;
69005;SDS011;56061;51.748;19.620;2022-07-19T04:28:19;8.70;;;4.00;;
69005;SDS011;56061;51.748;19.620;2022-07-19T04:30:46;10.60;;;4.00;;
69005;SDS011;56061;51.748;19.620;2022-07-19T04:33:14;11.00;;;4.00;;
69005;SDS011;56061;51.748;19.620;2022-07-19T04:35:42;10.20;;;3.50;;
69005;SDS011;56061;51.748;19.620;2022-07-19T04:38:09;13.20;;;4.10;;
69005;SDS011;56061;51.748;19.620;2022-07-19T04:40:37;9.60;;;3.70;;
69005;SDS011;56061;51.748;19.620;2022-07-19T04:43:04;10.40;;;3.90;;
69005;SDS011;56061;51.748;19.620;2022-07-19T04:45:31;8.80;;;3.70;;
69005;SDS011;56061;51.748;19.620;2022-07-19T04:47:58;14.40;;;3.60;;
69005;SDS011;56061;51.748;19.620;2022-07-19T04:50:25;9.80;;;3.40;;
69005;SDS011;56061;51.748;19.620;2022-07-19T04:52:51;8.10;;;3.40;;
69005;SDS011;56061;51.748;19.620;2022-07-19T04:55:18;10.30;;;3.70;;
69005;SDS011;56061;51.748;19.620;2022-07-19T04:57:44;13.10;;;3.60;;
69005;SDS011;56061;51.748;19.620;2022-07-19T05:00:11;8.20;;;3.40;;
69005;SDS011;56061;51.748;19.620;2022-07-19T05:02:39;9.80;;;3.60;;
69005;SDS011;56061;51.748;19.620;2022-07-19T05:05:06;9.20;;;3.60;;
69005;SDS011;56061;51.748;19.620;2022-07-19T05:07:33;7.80;;;3.30;;
69005;SDS011;56061;51.748;19.620;2022-07-19T05:10:00;10.30;;;4.00;;
69005;SDS011;56061;51.748;19.620;2022-07-19T05:12:27;9.80;;;3.80;;
69005;SDS011;56061;51.748;19.620;2022-07-19T05:14:53;8.70;;;3.50;;
69005;SDS011;56061;51.748;19.620;2022-07-19T05:17:25;9.80;;;3.70;;
69005;SDS011;56061;51.748;19.620;2022-07-19T05:19:51;10.60;;;3.70;;
69005;SDS011;56061;51.748;19.620;2022-07-19T05:22:18;10.90;;;3.70;;
69005;SDS011;56061;51.748;19.620;2022-07-19T05:24:45;9.80;;;3.50;;
69005;SDS011;56061;51.748;19.620;2022-07-19T05:27:12;9.00;;;3.70;;
69005;SDS011;56061;51.748;19.620;2022-07-19T05:29:39;11.10;;;3.60;;
69005;SDS011;56061;51.748;19.620;2022-07-19T05:32:05;9.90;;;3.70;;
69005;SDS011;56061;51.748;19.620;2022-07-19T05:34:32;10.60;;;3.30;;
69005;SDS011;56061;51.748;19.620;2022-07-19T05:36:58;12.30;;;3.40;;
69005;SDS011;56061;51.748;19.620;2022-07-19T05:39:25;9.30;;;3.20;;
69005;SDS011;56061;51.748;19.620;2022-07-19T05:41:52;9.10;;;3.60;;
69005;SDS011;56061;51.748;19.620;2022-07-19T05:44:22;24.80;;;5.20;;
69005;SDS011;56061;51.748;19.620;2022-07-19T05:46:49;17.50;;;4.00;;
69005;SDS011;56061;51.748;19.620;2022-07-19T05:49:16;9.60;;;3.80;;
69005;SDS011;56061;51.748;19.620;2022-07-19T05:51:42;7.90;;;3.60;;
69005;SDS011;56061;51.748;19.620;2022-07-19T05:54:10;10.60;;;3.80;;
69005;SDS011;56061;51.748;19.620;2022-07-19T05:56:37;9.80;;;3.90;;
69005;SDS011;56061;51.748;19.620;2022-07-19T05:59:04;10.30;;;3.80;;
69005;SDS011;56061;51.748;19.620;2022-07-19T06:01:30;12.70;;;3.70;;
69005;SDS011;56061;51.748;19.620;2022-07-19T06:03:58;13.70;;;3.60;;
69005;SDS011;56061;51.748;19.620;2022-07-19T06:06:28;10.40;;;3.50;;
69005;SDS011;56061;51.748;19.620;2022-07-19T06:08:58;10.90;;;4.20;;
69005;SDS011;56061;51.748;19.620;2022-07-19T06:11:27;7.80;;;3.40;;
69005;SDS011;56061;51.748;19.620;2022-07-19T06:13:55;8.80;;;3.40;;
69005;SDS011;56061;51.748;19.620;2022-07-19T06:16:22;9.80;;;3.90;;
69005;SDS011;56061;51.748;19.620;2022-07-19T06:18:49;8.80;;;3.60;;
69005;SDS011;56061;51.748;19.620;2022-07-19T06:21:17;11.80;;;3.90;;
69005;SDS011;56061;51.748;19.620;2022-07-19T06:23:46;11.90;;;3.40;;
69005;SDS011;56061;51.748;19.620;2022-07-19T06:26:13;11.50;;;3.80;;
69005;SDS011;56061;51.748;19.620;2022-07-19T06:28:41;11.30;;;3.70;;
69005;SDS011;56061;51.748;19.620;2022-07-19T06:31:09;8.40;;;3.70;;
69005;SDS011;56061;51.748;19.620;2022-07-19T06:33:42;17.40;;;4.20;;
69005;SDS011;56061;51.748;19.620;2022-07-19T06:36:13;11.70;;;3.40;;
69005;SDS011;56061;51.748;19.620;2022-07-19T06:38:40;10.30;;;3.60;;
69005;SDS011;56061;51.748;19.620;2022-07-19T06:41:10;8.30;;;3.20;;
69005;SDS011;56061;51.748;19.620;2022-07-19T06:43:38;8.20;;;3.50;;
69005;SDS011;56061;51.748;19.620;2022-07-19T06:46:05;8.10;;;3.40;;
69005;SDS011;56061;51.748;19.620;2022-07-19T06:48:34;8.30;;;3.30;;
69005;SDS011;56061;51.748;19.620;2022-07-19T06:51:01;21.80;;;3.80;;
69005;SDS011;56061;51.748;19.620;2022-07-19T06:53:29;9.10;;;3.40;;
69005;SDS011;56061;51.748;19.620;2022-07-19T06:55:55;7.60;;;3.20;;
69005;SDS011;56061;51.748;19.620;2022-07-19T06:58:22;8.70;;;3.20;;
69005;SDS011;56061;51.748;19.620;2022-07-19T07:00:49;7.70;;;3.50;;
69005;SDS011;56061;51.748;19.620;2022-07-19T07:03:15;8.40;;;3.50;;
69005;SDS011;56061;51.748;19.620;2022-07-19T07:05:44;8.70;;;3.10;;
69005;SDS011;56061;51.748;19.620;2022-07-19T07:08:11;10.20;;;3.40;;
69005;SDS011;56061;51.748;19.620;2022-07-19T07:10:38;8.50;;;3.30;;
69005;SDS011;56061;51.748;19.620;2022-07-19T07:13:06;7.00;;;3.50;;
69005;SDS011;56061;51.748;19.620;2022-07-19T07:15:33;7.70;;;3.20;;
69005;SDS011;56061;51.748;19.620;2022-07-19T07:18:00;11.80;;;4.40;;
69005;SDS011;56061;51.748;19.620;2022-07-19T07:20:26;10.70;;;4.20;;
69005;SDS011;56061;51.748;19.620;2022-07-19T07:22:53;8.60;;;3.50;;
69005;SDS011;56061;51.748;19.620;2022-07-19T07:25:20;13.40;;;4.10;;
69005;SDS011;56061;51.748;19.620;2022-07-19T07:27:47;8.70;;;3.50;;
69005;SDS011;56061;51.748;19.620;2022-07-19T07:30:17;9.90;;;3.50;;
69005;SDS011;56061;51.748;19.620;2022-07-19T07:32:43;7.90;;;3.50;;
69005;SDS011;56061;51.748;19.620;2022-07-19T07:35:10;9.90;;;4.30;;
69005;SDS011;56061;51.748;19.620;2022-07-19T07:37:36;10.90;;;4.00;;
69005;SDS011;56061;51.748;19.620;2022-07-19T07:40:03;10.30;;;3.80;;
69005;SDS011;56061;51.748;19.620;2022-07-19T07:42:31;10.90;;;3.90;;
69005;SDS011;56061;51.748;19.620;2022-07-19T07:44:59;8.00;;;3.50;;
69005;SDS011;56061;51.748;19.620;2022-07-19T07:47:27;9.30;;;4.00;;
69005;SDS011;56061;51.748;19.620;2022-07-19T07:49:54;9.10;;;3.70;;
69005;SDS011;56061;51.748;19.620;2022-07-19T07:52:20;9.30;;;4.00;;
69005;SDS011;56061;51.748;19.620;2022-07-19T07:54:47;9.40;;;3.20;;
69005;SDS011;56061;51.748;19.620;2022-07-19T07:57:35;8.00;;;3.50;;
69005;SDS011;56061;51.748;19.620;2022-07-19T08:00:04;14.30;;;4.00;;
69005;SDS011;56061;51.748;19.620;2022-07-19T08:02:38;10.70;;;3.50;;
69005;SDS011;56061;51.748;19.620;2022-07-19T08:05:13;7.70;;;2.90;;
69005;SDS011;56061;51.748;19.620;2022-07-19T08:07:40;7.80;;;2.90;;
69005;SDS011;56061;51.748;19.620;2022-07-19T08:10:08;8.20;;;3.10;;
69005;SDS011;56061;51.748;19.620;2022-07-19T08:12:35;7.70;;;2.90;;
69005;SDS011;56061;51.748;19.620;2022-07-19T08:15:03;10.70;;;3.20;;
69005;SDS011;56061;51.748;19.620;2022-07-19T08:17:31;7.00;;;3.20;;
69005;SDS011;56061;51.748;19.620;2022-07-19T08:19:58;5.50;;;2.80;;
69005;SDS011;56061;51.748;19.620;2022-07-19T08:22:25;6.40;;;2.90;;
69005;SDS011;56061;51.748;19.620;2022-07-19T08:24:53;9.20;;;3.00;;
69005;SDS011;56061;51.748;19.620;2022-07-19T08:27:20;8.20;;;2.90;;
69005;SDS011;56061;51.748;19.620;2022-07-19T08:29:47;8.50;;;2.60;;
69005;SDS011;56061;51.748;19.620;2022-07-19T08:32:14;10.50;;;3.20;;
69005;SDS011;56061;51.748;19.620;2022-07-19T08:34:41;7.50;;;2.90;;
69005;SDS011;56061;51.748;19.620;2022-07-19T08:37:08;6.90;;;3.00;;
69005;SDS011;56061;51.748;19.620;2022-07-19T08:39:34;6.50;;;2.80;;
69005;SDS011;56061;51.748;19.620;2022-07-19T08:42:01;7.20;;;3.10;;
69005;SDS011;56061;51.748;19.620;2022-07-19T08:44:29;9.20;;;2.70;;
69005;SDS011;56061;51.748;19.620;2022-07-19T08:46:58;7.30;;;3.00;;
69005;SDS011;56061;51.748;19.620;2022-07-19T08:49:25;8.40;;;2.90;;
69005;SDS011;56061;51.748;19.620;2022-07-19T08:51:51;5.50;;;2.70;;
69005;SDS011;56061;51.748;19.620;2022-07-19T08:54:18;6.10;;;2.90;;
69005;SDS011;56061;51.748;19.620;2022-07-19T08:56:45;8.00;;;2.70;;
69005;SDS011;56061;51.748;19.620;2022-07-19T08:59:32;4.80;;;2.60;;
69005;SDS011;56061;51.748;19.620;2022-07-19T09:01:59;5.30;;;2.70;;
69005;SDS011;56061;51.748;19.620;2022-07-19T09:04:26;5.70;;;2.60;;
69005;SDS011;56061;51.748;19.620;2022-07-19T09:06:56;6.40;;;2.70;;
69005;SDS011;56061;51.748;19.620;2022-07-19T09:09:26;8.30;;;3.20;;
69005;SDS011;56061;51.748;19.620;2022-07-19T09:11:56;7.80;;;2.70;;
69005;SDS011;56061;51.748;19.620;2022-07-19T09:14:26;6.00;;;2.70;;
69005;SDS011;56061;51.748;19.620;2022-07-19T09:17:04;7.30;;;2.60;;
69005;SDS011;56061;51.748;19.620;2022-07-19T09:19:45;5.80;;;2.80;;
69005;SDS011;56061;51.748;19.620;2022-07-19T09:22:18;6.40;;;2.50;;
69005;SDS011;56061;51.748;19.620;2022-07-19T09:24:49;6.40;;;2.80;;
69005;SDS011;56061;51.748;19.620;2022-07-19T09:27:21;7.70;;;3.30;;
69005;SDS011;56061;51.748;19.620;2022-07-19T09:29:53;7.20;;;2.80;;
69005;SDS011;56061;51.748;19.620;2022-07-19T09:32:23;7.00;;;2.80;;
69005;SDS011;56061;51.748;19.620;2022-07-19T09:37:30;8.10;;;3.00;;
69005;SDS011;56061;51.748;19.620;2022-07-19T09:40:01;7.00;;;3.20;;
69005;SDS011;56061;51.748;19.620;2022-07-19T09:42:38;8.30;;;3.90;;
69005;SDS011;56061;51.748;19.620;2022-07-19T09:45:15;6.70;;;3.00;;
69005;SDS011;56061;51.748;19.620;2022-07-19T09:47:45;6.70;;;3.30;;
69005;SDS011;56061;51.748;19.620;2022-07-19T09:50:18;7.20;;;2.90;;
69005;SDS011;56061;51.748;19.620;2022-07-19T09:52:48;9.00;;;3.40;;
69005;SDS011;56061;51.748;19.620;2022-07-19T09:55:17;8.50;;;3.40;;
69005;SDS011;56061;51.748;19.620;2022-07-19T09:57:49;5.40;;;3.20;;
69005;SDS011;56061;51.748;19.620;2022-07-19T10:00:19;6.60;;;3.10;;
69005;SDS011;56061;51.748;19.620;2022-07-19T10:03:00;7.30;;;3.10;;
69005;SDS011;56061;51.748;19.620;2022-07-19T10:05:28;7.20;;;3.00;;
69005;SDS011;56061;51.748;19.620;2022-07-19T10:07:57;6.30;;;2.80;;
69005;SDS011;56061;51.748;19.620;2022-07-19T10:10:24;6.40;;;2.90;;
69005;SDS011;56061;51.748;19.620;2022-07-19T10:12:51;6.10;;;3.30;;
69005;SDS011;56061;51.748;19.620;2022-07-19T10:15:19;5.90;;;2.90;;
69005;SDS011;56061;51.748;19.620;2022-07-19T10:18:00;7.50;;;3.00;;
69005;SDS011;56061;51.748;19.620;2022-07-19T10:20:34;5.60;;;2.70;;
69005;SDS011;56061;51.748;19.620;2022-07-19T10:23:05;7.70;;;3.10;;
69005;SDS011;56061;51.748;19.620;2022-07-19T10:25:50;5.50;;;3.00;;
69005;SDS011;56061;51.748;19.620;2022-07-19T10:31:30;5.50;;;2.60;;
69005;SDS011;56061;51.748;19.620;2022-07-19T10:34:03;6.20;;;2.90;;
69005;SDS011;56061;51.748;19.620;2022-07-19T10:36:42;6.90;;;2.90;;
69005;SDS011;56061;51.748;19.620;2022-07-19T10:39:25;6.00;;;2.70;;
69005;SDS011;56061;51.748;19.620;2022-07-19T10:50:10;6.60;;;2.50;;
69005;SDS011;56061;51.748;19.620;2022-07-19T10:52:42;7.50;;;3.00;;
69005;SDS011;56061;51.748;19.620;2022-07-19T10:57:51;6.70;;;3.10;;
69005;SDS011;56061;51.748;19.620;2022-07-19T11:00:28;6.20;;;2.60;;
69005;SDS011;56061;51.748;19.620;2022-07-19T11:05:54;6.00;;;3.20;;
69005;SDS011;56061;51.748;19.620;2022-07-19T11:08:38;8.20;;;3.10;;
69005;SDS011;56061;51.748;19.620;2022-07-19T11:11:10;6.30;;;2.90;;
69005;SDS011;56061;51.748;19.620;2022-07-19T11:13:43;8.40;;;2.70;;
69005;SDS011;56061;51.748;19.620;2022-07-19T11:16:11;6.40;;;3.10;;
69005;SDS011;56061;51.748;19.620;2022-07-19T11:18:39;6.70;;;3.10;;
69005;SDS011;56061;51.748;19.620;2022-07-19T11:21:07;7.30;;;3.40;;
69005;SDS011;56061;51.748;19.620;2022-07-19T11:23:36;5.90;;;2.60;;
69005;SDS011;56061;51.748;19.620;2022-07-19T11:28:42;6.50;;;3.00;;
69005;SDS011;56061;51.748;19.620;2022-07-19T11:31:19;6.10;;;2.80;;
69005;SDS011;56061;51.748;19.620;2022-07-19T11:33:49;5.70;;;2.90;;
69005;SDS011;56061;51.748;19.620;2022-07-19T11:36:19;6.20;;;3.00;;
69005;SDS011;56061;51.748;19.620;2022-07-19T11:38:49;5.50;;;2.70;;
69005;SDS011;56061;51.748;19.620;2022-07-19T11:46:33;5.20;;;2.90;;
69005;SDS011;56061;51.748;19.620;2022-07-19T11:49:06;5.90;;;2.90;;
69005;SDS011;56061;51.748;19.620;2022-07-19T11:51:34;6.20;;;3.10;;
69005;SDS011;56061;51.748;19.620;2022-07-19T11:54:03;6.80;;;3.00;;
69005;SDS011;56061;51.748;19.620;2022-07-19T11:56:34;5.70;;;2.80;;
69005;SDS011;56061;51.748;19.620;2022-07-19T11:59:04;7.10;;;3.20;;
69005;SDS011;56061;51.748;19.620;2022-07-19T12:01:36;7.10;;;3.00;;
69005;SDS011;56061;51.748;19.620;2022-07-19T12:04:10;5.90;;;2.80;;
69005;SDS011;56061;51.748;19.620;2022-07-19T12:06:48;7.10;;;3.10;;
69005;SDS011;56061;51.748;19.620;2022-07-19T12:09:29;6.20;;;3.20;;
69005;SDS011;56061;51.748;19.620;2022-07-19T12:11:59;5.60;;;2.60;;
69005;SDS011;56061;51.748;19.620;2022-07-19T12:14:31;5.90;;;3.20;;
69005;SDS011;56061;51.748;19.620;2022-07-19T12:17:17;6.70;;;3.40;;
69005;SDS011;56061;51.748;19.620;2022-07-19T12:19:50;6.70;;;2.90;;
69005;SDS011;56061;51.748;19.620;2022-07-19T12:22:35;6.20;;;3.60;;
69005;SDS011;56061;51.748;19.620;2022-07-19T12:25:05;7.10;;;3.20;;
69005;SDS011;56061;51.748;19.620;2022-07-19T12:27:36;7.10;;;3.80;;
69005;SDS011;56061;51.748;19.620;2022-07-19T12:30:04;6.20;;;3.10;;
69005;SDS011;56061;51.748;19.620;2022-07-19T12:32:39;4.60;;;2.90;;
69005;SDS011;56061;51.748;19.620;2022-07-19T12:35:13;6.00;;;3.30;;
69005;SDS011;56061;51.748;19.620;2022-07-19T12:37:43;6.30;;;3.30;;
69005;SDS011;56061;51.748;19.620;2022-07-19T12:40:22;4.90;;;2.80;;
69005;SDS011;56061;51.748;19.620;2022-07-19T12:42:52;6.30;;;2.90;;
69005;SDS011;56061;51.748;19.620;2022-07-19T12:45:28;5.00;;;2.70;;
69005;SDS011;56061;51.748;19.620;2022-07-19T12:48:00;5.80;;;3.00;;
69005;SDS011;56061;51.748;19.620;2022-07-19T12:50:30;5.20;;;3.00;;
69005;SDS011;56061;51.748;19.620;2022-07-19T12:53:05;6.90;;;3.20;;
69005;SDS011;56061;51.748;19.620;2022-07-19T12:55:35;4.50;;;2.70;;
69005;SDS011;56061;51.748;19.620;2022-07-19T12:58:05;5.70;;;2.80;;
69005;SDS011;56061;51.748;19.620;2022-07-19T13:00:34;8.60;;;3.30;;
69005;SDS011;56061;51.748;19.620;2022-07-19T13:03:03;7.20;;;2.90;;
69005;SDS011;56061;51.748;19.620;2022-07-19T13:05:31;5.00;;;2.60;;
69005;SDS011;56061;51.748;19.620;2022-07-19T13:07:59;5.90;;;2.60;;
69005;SDS011;56061;51.748;19.620;2022-07-19T13:10:28;7.00;;;2.80;;
69005;SDS011;56061;51.748;19.620;2022-07-19T13:12:56;6.00;;;2.50;;
69005;SDS011;56061;51.748;19.620;2022-07-19T13:15:24;5.90;;;2.60;;
69005;SDS011;56061;51.748;19.620;2022-07-19T13:17:51;6.40;;;3.00;;
69005;SDS011;56061;51.748;19.620;2022-07-19T13:20:25;5.90;;;2.70;;
69005;SDS011;56061;51.748;19.620;2022-07-19T13:22:52;5.60;;;2.90;;
69005;SDS011;56061;51.748;19.620;2022-07-19T13:25:19;5.00;;;2.40;;
69005;SDS011;56061;51.748;19.620;2022-07-19T13:28:05;6.10;;;3.10;;
69005;SDS011;56061;51.748;19.620;2022-07-19T13:30:33;6.60;;;2.90;;
69005;SDS011;56061;51.748;19.620;2022-07-19T13:33:02;7.50;;;2.60;;
69005;SDS011;56061;51.748;19.620;2022-07-19T13:35:32;7.30;;;2.70;;
69005;SDS011;56061;51.748;19.620;2022-07-19T13:38:00;6.40;;;3.40;;
69005;SDS011;56061;51.748;19.620;2022-07-19T13:40:27;6.40;;;3.00;;
69005;SDS011;56061;51.748;19.620;2022-07-19T13:42:53;6.00;;;2.60;;
69005;SDS011;56061;51.748;19.620;2022-07-19T13:45:20;5.70;;;2.70;;
69005;SDS011;56061;51.748;19.620;2022-07-19T13:47:47;5.90;;;3.10;;
69005;SDS011;56061;51.748;19.620;2022-07-19T13:50:13;5.90;;;2.70;;
69005;SDS011;56061;51.748;19.620;2022-07-19T13:52:40;6.60;;;2.60;;
69005;SDS011;56061;51.748;19.620;2022-07-19T13:55:07;6.60;;;2.80;;
69005;SDS011;56061;51.748;19.620;2022-07-19T13:57:35;5.60;;;3.30;;
69005;SDS011;56061;51.748;19.620;2022-07-19T14:00:03;5.60;;;2.60;;
69005;SDS011;56061;51.748;19.620;2022-07-19T14:02:33;5.30;;;3.00;;
69005;SDS011;56061;51.748;19.620;2022-07-19T14:05:00;5.00;;;2.80;;
69005;SDS011;56061;51.748;19.620;2022-07-19T14:07:27;4.60;;;2.60;;
69005;SDS011;56061;51.748;19.620;2022-07-19T14:09:53;7.50;;;2.80;;
69005;SDS011;56061;51.748;19.620;2022-07-19T14:12:21;5.60;;;2.80;;
69005;SDS011;56061;51.748;19.620;2022-07-19T14:14:48;5.40;;;2.90;;
69005;SDS011;56061;51.748;19.620;2022-07-19T14:17:14;5.90;;;3.40;;
69005;SDS011;56061;51.748;19.620;2022-07-19T14:19:43;6.20;;;2.90;;
69005;SDS011;56061;51.748;19.620;2022-07-19T14:22:09;8.20;;;3.00;;
69005;SDS011;56061;51.748;19.620;2022-07-19T14:24:37;5.70;;;2.90;;
69005;SDS011;56061;51.748;19.620;2022-07-19T14:27:04;6.40;;;2.70;;
69005;SDS011;56061;51.748;19.620;2022-07-19T14:29:31;5.80;;;3.10;;
69005;SDS011;56061;51.748;19.620;2022-07-19T14:31:58;6.10;;;2.60;;
69005;SDS011;56061;51.748;19.620;2022-07-19T14:34:25;5.00;;;2.60;;
69005;SDS011;56061;51.748;19.620;2022-07-19T14:37:03;5.20;;;2.80;;
69005;SDS011;56061;51.748;19.620;2022-07-19T14:39:30;6.30;;;2.90;;
69005;SDS011;56061;51.748;19.620;2022-07-19T14:41:58;5.70;;;2.90;;
69005;SDS011;56061;51.748;19.620;2022-07-19T14:44:26;6.40;;;2.90;;
69005;SDS011;56061;51.748;19.620;2022-07-19T14:46:53;5.70;;;3.30;;
69005;SDS011;56061;51.748;19.620;2022-07-19T14:49:22;6.10;;;3.20;;
69005;SDS011;56061;51.748;19.620;2022-07-19T14:51:52;6.60;;;3.30;;
69005;SDS011;56061;51.748;19.620;2022-07-19T14:54:19;7.40;;;3.20;;
69005;SDS011;56061;51.748;19.620;2022-07-19T14:56:50;5.10;;;2.80;;
69005;SDS011;56061;51.748;19.620;2022-07-19T14:59:18;7.30;;;3.00;;
69005;SDS011;56061;51.748;19.620;2022-07-19T15:01:45;6.00;;;2.90;;
69005;SDS011;56061;51.748;19.620;2022-07-19T15:04:16;6.30;;;3.00;;
69005;SDS011;56061;51.748;19.620;2022-07-19T15:06:43;5.40;;;2.80;;
69005;SDS011;56061;51.748;19.620;2022-07-19T15:09:11;5.90;;;3.00;;